Time;durP1;ratioP1;P1;durP2;ratioP2;P2;SDS_P1;SDS_P2;PMS_P1;PMS_P2;Temp;Humidity;BMP_temperature;BMP_pressure;BME280_temperature;BME280_humidity;BME280_pressure;Samples;Min_cycle;Max_cycle;Signal;HPM_P1;HPM_P2
2022/11/07 00:02:10;;;;;;;;;;;;;;;9.42;65.70;100521.69;5074129;28;20019;-66
2022/11/07 00:04:36;;;;;;;;;;;;;;;9.34;66.40;100518.31;5072808;28;19928;-66
2022/11/07 00:07:01;;;;;;;;;;;;;;;9.40;66.09;100518.19;5072995;28;20436;-65
2022/11/07 00:09:27;;;;;;;;;;;;;;;9.40;65.82;100507.69;5073639;28;19925;-65
2022/11/07 00:11:52;;;;;;;;;;;;;;;9.30;66.50;100512.22;5072454;28;20288;-65
2022/11/07 00:14:17;;;;;;;;;;;;;;;9.32;65.90;100512.19;5072993;28;20326;-64
2022/11/07 00:16:44;;;;;;;;;;;;;;;9.20;65.94;100510.59;5073349;28;19990;-66
2022/11/07 00:19:10;;;;;;;;;;;;;;;9.23;66.22;100514.97;5071389;28;20097;-66
2022/11/07 00:21:37;;;;;;;;;;;;;;;9.20;66.00;100509.75;5088010;28;19975;-66
2022/11/07 00:24:02;;;;;;;;;;;;;;;9.21;66.91;100504.47;5074218;28;19947;-65
2022/11/07 00:26:27;;;;;;;;;;;;;;;9.17;66.10;100515.03;5074431;28;20364;-65
2022/11/07 00:28:53;;;;;;;;;;;;;;;9.23;66.07;100512.34;5069983;28;19925;-66
2022/11/07 00:31:18;;;;;;;;;;;;;;;9.18;65.98;100506.28;5072720;28;20264;-66
2022/11/07 00:33:44;;;;;;;;;;;;;;;9.09;66.90;100510.75;5071361;28;19928;-67
2022/11/07 00:36:15;;;;;;;;;;;;;;;9.06;66.06;100507.31;5073113;28;20357;-66
2022/11/07 00:38:40;;;;;;;;;;;;;;;9.09;66.35;100509.88;5072480;28;20018;-66
2022/11/07 00:41:06;;;;;;;;;;;;;;;9.01;65.99;100503.88;5070821;28;20051;-65
2022/11/07 00:43:31;;;;;;;;;;;;;;;8.97;66.16;100503.03;5072758;28;19924;-65
2022/11/07 00:45:58;;;;;;;;;;;;;;;8.97;65.67;100503.03;5073046;28;19925;-65
2022/11/07 00:48:24;;;;;;;;;;;;;;;8.84;66.25;100502.34;5072281;28;19928;-65
2022/11/07 00:50:49;;;;;;;;;;;;;;;8.89;65.91;100495.28;5071873;28;19983;-65
2022/11/07 00:53:14;;;;;;;;;;;;;;;8.82;66.15;100491.03;5072356;28;20367;-65
2022/11/07 00:55:40;;;;;;;;;;;;;;;8.73;66.05;100485.03;5082633;28;19932;-65
2022/11/07 00:58:05;;;;;;;;;;;;;;;8.80;66.40;100471.84;5068093;28;19928;-64
2022/11/07 01:00:31;;;;;;;;;;;;;;;8.82;66.78;100471.84;5072262;28;19922;-64
2022/11/07 01:05:40;;;;;;;;;;;;;;;8.90;66.14;100464.72;5072652;28;20433;-65
2022/11/07 01:08:05;;;;;;;;;;;;;;;8.82;66.07;100456.97;5072321;28;19924;-65
2022/11/07 01:10:31;;;;;;;;;;;;;;;8.85;66.23;100456.03;5053699;28;19923;-65
2022/11/07 01:12:56;;;;;;;;;;;;;;;8.88;66.03;100456.88;5073236;28;19943;-64
2022/11/07 01:15:21;;;;;;;;;;;;;;;8.80;66.61;100440.38;5069862;28;20023;-64
2022/11/07 01:17:46;;;;;;;;;;;;;;;8.84;65.97;100438.59;5071642;28;19970;-65
2022/11/07 01:20:12;;;;;;;;;;;;;;;8.85;66.73;100428.09;5071231;28;19943;-66
2022/11/07 01:22:37;;;;;;;;;;;;;;;8.87;66.26;100425.47;5068991;28;19931;-65
2022/11/07 01:25:03;;;;;;;;;;;;;;;8.99;65.81;100427.03;5075092;28;20329;-65
2022/11/07 01:27:29;;;;;;;;;;;;;;;8.95;67.41;100420.97;5072793;28;19928;-65
2022/11/07 01:29:54;;;;;;;;;;;;;;;8.95;65.63;100422.75;5080202;28;19912;-66
2022/11/07 01:32:19;;;;;;;;;;;;;;;8.99;65.81;100412.19;5073597;28;20256;-66
2022/11/07 01:34:45;;;;;;;;;;;;;;;8.96;66.13;100416.59;5085026;28;19916;-66
2022/11/07 01:37:10;;;;;;;;;;;;;;;8.84;66.12;100399.28;5093387;28;20279;-65
2022/11/07 01:39:35;;;;;;;;;;;;;;;8.89;66.54;100392.22;5092341;28;20022;-65
2022/11/07 01:42:01;;;;;;;;;;;;;;;8.94;65.72;100394.81;5081606;28;20372;-65
2022/11/07 01:44:26;;;;;;;;;;;;;;;8.84;65.52;100375.72;5073338;28;19921;-66
2022/11/07 01:46:54;;;;;;;;;;;;;;;8.83;65.94;100376.63;5083286;28;19955;-65
2022/11/07 01:49:22;;;;;;;;;;;;;;;8.84;65.75;100378.34;5083317;28;20427;-65
2022/11/07 01:51:49;;;;;;;;;;;;;;;8.94;65.84;100379.09;5073274;28;19939;-65
2022/11/07 01:54:19;;;;;;;;;;;;;;;8.82;65.22;100375.75;5073775;28;19913;-64
2022/11/07 01:56:45;;;;;;;;;;;;;;;8.84;65.55;100370.47;5093149;28;20319;-64
2022/11/07 01:59:12;;;;;;;;;;;;;;;8.72;65.03;100375.91;5092214;28;19920;-64
2022/11/07 02:01:38;;;;;;;;;;;;;;;8.83;65.25;100374.84;5093592;28;19920;-64
2022/11/07 02:04:03;;;;;;;;;;;;;;;8.82;65.00;100373.13;5093389;28;19920;-64
2022/11/07 02:06:42;;;;;;;;;;;;;;;8.80;65.13;100366.16;5082131;28;19955;-66
2022/11/07 02:09:07;;;;;;;;;;;;;;;8.68;65.19;100363.72;5073169;28;19932;-66
2022/11/07 02:11:33;;;;;;;;;;;;;;;8.67;64.95;100368.09;5073100;28;19917;-65
2022/11/07 02:13:58;;;;;;;;;;;;;;;8.74;64.89;100368.91;5073180;28;19921;-65
2022/11/07 02:16:23;;;;;;;;;;;;;;;8.71;64.90;100366.31;5072621;28;19916;-65
2022/11/07 02:18:49;;;;;;;;;;;;;;;8.69;64.92;100365.44;5073514;28;19921;-65
2022/11/07 02:21:17;;;;;;;;;;;;;;;8.61;64.98;100373.41;5072834;28;19921;-65
2022/11/07 02:24:12;;;;;;;;;;;;;;;8.60;64.73;100372.56;5075281;28;19974;-65
2022/11/07 02:26:38;;;;;;;;;;;;;;;8.57;64.87;100380.44;5085917;28;19919;-65
2022/11/07 02:29:06;;;;;;;;;;;;;;;8.56;65.16;100375.25;5099025;28;20286;-65
2022/11/07 02:31:32;;;;;;;;;;;;;;;8.56;65.36;100365.63;5081297;28;19916;-66
2022/11/07 02:33:57;;;;;;;;;;;;;;;8.52;65.52;100355.22;5096639;28;19916;-66
2022/11/07 02:36:23;;;;;;;;;;;;;;;8.46;65.57;100353.56;5088207;28;20019;-66
2022/11/07 02:38:50;;;;;;;;;;;;;;;8.52;65.52;100348.22;5077144;28;19926;-66
2022/11/07 02:41:18;;;;;;;;;;;;;;;8.47;65.77;100339.56;5094163;28;20031;-66
2022/11/07 02:44:04;;;;;;;;;;;;;;;8.51;66.18;100341.25;5097338;28;19916;-65
2022/11/07 02:46:30;;;;;;;;;;;;;;;8.54;65.55;100351.69;5095656;28;20256;-66
2022/11/07 02:48:57;;;;;;;;;;;;;;;8.57;65.57;100350.78;5084795;28;19924;-65
2022/11/07 02:51:22;;;;;;;;;;;;;;;8.56;65.67;100343.81;5076089;28;19965;-66
2022/11/07 02:53:48;;;;;;;;;;;;;;;8.59;65.66;100354.25;5074354;28;19920;-65
2022/11/07 02:56:13;;;;;;;;;;;;;;;8.56;65.58;100357.75;5075459;28;20050;-65
2022/11/07 02:58:39;;;;;;;;;;;;;;;8.64;65.38;100355.03;5075682;28;19932;-65
2022/11/07 03:01:07;;;;;;;;;;;;;;;8.60;65.41;100354.22;5075560;28;19925;-64
2022/11/07 03:03:40;;;;;;;;;;;;;;;8.64;65.45;100358.53;5074335;28;19925;-65
2022/11/07 03:06:06;;;;;;;;;;;;;;;8.60;66.00;100351.59;5075769;28;19917;-65
2022/11/07 03:08:31;;;;;;;;;;;;;;;8.57;65.63;100351.63;5074601;28;19916;-65
2022/11/07 03:10:56;;;;;;;;;;;;;;;8.52;66.09;100350.84;5075577;28;20007;-65
2022/11/07 03:13:22;;;;;;;;;;;;;;;8.64;65.82;100342.81;5075192;28;20291;-65
2022/11/07 03:15:48;;;;;;;;;;;;;;;8.61;66.20;100340.22;5074811;28;19920;-65
2022/11/07 03:18:13;;;;;;;;;;;;;;;8.64;65.88;100350.66;5075453;28;19920;-66
2022/11/07 03:20:39;;;;;;;;;;;;;;;8.67;65.78;100341.91;5073818;28;20007;-66
2022/11/07 03:23:04;;;;;;;;;;;;;;;8.72;65.79;100345.31;5075134;28;19930;-66
2022/11/07 03:25:29;;;;;;;;;;;;;;;8.74;65.62;100348.81;5073765;28;20422;-66
2022/11/07 03:27:55;;;;;;;;;;;;;;;8.72;65.60;100353.19;5072434;28;20392;-65
2022/11/07 03:30:20;;;;;;;;;;;;;;;8.72;65.89;100352.31;5077919;28;20307;-66
2022/11/07 03:32:45;;;;;;;;;;;;;;;8.69;65.44;100362.84;5056505;28;20007;-66
2022/11/07 03:35:11;;;;;;;;;;;;;;;8.71;65.57;100363.69;5075240;28;20429;-66
2022/11/07 03:37:36;;;;;;;;;;;;;;;8.67;65.99;100344.53;5087879;28;19927;-67
2022/11/07 03:40:02;;;;;;;;;;;;;;;8.74;65.85;100345.31;5085659;28;19987;-67
2022/11/07 03:42:27;;;;;;;;;;;;;;;8.71;65.65;100333.13;5106782;28;19925;-66
2022/11/07 03:44:53;;;;;;;;;;;;;;;8.73;65.49;100325.22;5079516;28;19931;-66
2022/11/07 03:47:18;;;;;;;;;;;;;;;8.69;65.85;100329.63;5076846;28;20017;-66
2022/11/07 03:49:43;;;;;;;;;;;;;;;8.70;65.83;100325.25;5077064;28;19950;-66
2022/11/07 03:52:09;;;;;;;;;;;;;;;8.68;65.75;100317.44;5080632;28;19931;-66
2022/11/07 03:54:34;;;;;;;;;;;;;;;8.58;66.07;100324.59;5095508;28;20284;-66
2022/11/07 03:56:59;;;;;;;;;;;;;;;8.66;65.96;100323.56;5089260;28;20414;-66
2022/11/07 03:59:25;;;;;;;;;;;;;;;8.56;65.78;100328.97;5073741;28;19924;-65
2022/11/07 04:01:50;;;;;;;;;;;;;;;8.54;66.04;100322.91;5073718;28;19931;-66
2022/11/07 04:04:15;;;;;;;;;;;;;;;8.54;66.23;100320.28;5077924;28;19920;-65
2022/11/07 04:06:40;;;;;;;;;;;;;;;8.55;66.21;100311.53;5074723;28;19916;-65
2022/11/07 04:09:06;;;;;;;;;;;;;;;8.51;66.24;100308.97;5073780;28;20395;-65
2022/11/07 04:17:17;;;;;;;;;;;;;;;8.55;66.18;100315.91;5073518;28;20490;-65
2022/11/07 04:19:42;;;;;;;;;;;;;;;8.53;66.47;100315.03;5074524;28;19978;-65
2022/11/07 04:22:08;;;;;;;;;;;;;;;8.60;66.53;100314.94;5073841;28;20368;-65
2022/11/07 04:24:33;;;;;;;;;;;;;;;8.61;66.28;100316.66;5074610;28;20283;-65
2022/11/07 04:29:42;;;;;;;;;;;;;;;8.58;66.51;100308.00;5073907;28;19970;-66
2022/11/07 04:32:07;;;;;;;;;;;;;;;8.60;66.29;100304.44;5073398;28;19985;-65
2022/11/07 04:34:33;;;;;;;;;;;;;;;8.60;66.16;100304.44;5075679;28;19935;-65
2022/11/07 04:36:58;;;;;;;;;;;;;;;8.59;66.02;100297.50;5072527;28;19931;-66
2022/11/07 04:39:23;;;;;;;;;;;;;;;8.52;66.75;100281.91;5072490;28;20011;-66
2022/11/07 04:41:49;;;;;;;;;;;;;;;8.49;66.70;100269.69;5074183;28;19920;-65
2022/11/07 04:44:14;;;;;;;;;;;;;;;8.58;66.93;100273.97;5072752;28;20264;-66
2022/11/07 04:46:39;;;;;;;;;;;;;;;8.58;66.35;100273.97;5072319;28;19967;-66
2022/11/07 04:49:05;;;;;;;;;;;;;;;8.56;66.32;100268.72;5074793;28;20015;-65
2022/11/07 04:51:30;;;;;;;;;;;;;;;8.60;68.28;100257.31;5074053;28;20303;-65
2022/11/07 04:53:55;;;;;;;;;;;;;;;8.69;66.88;100255.44;5094386;28;19942;-65
2022/11/07 04:56:20;;;;;;;;;;;;;;;8.73;66.78;100247.50;5092819;28;20023;-65
2022/11/07 04:58:46;;;;;;;;;;;;;;;8.70;66.61;100241.44;5058944;28;19924;-67
2022/11/07 05:01:11;;;;;;;;;;;;;;;8.75;66.53;100244.88;5073214;28;19966;-67
2022/11/07 05:03:36;;;;;;;;;;;;;;;8.63;66.55;100241.56;5073698;28;20377;-65
2022/11/07 05:06:03;;;;;;;;;;;;;;;8.84;66.28;100234.22;5073137;28;19950;-65
2022/11/07 05:08:29;;;;;;;;;;;;;;;8.91;66.03;100235.00;5074112;28;20330;-65
2022/11/07 05:10:54;;;;;;;;;;;;;;;9.03;65.62;100235.66;5071348;28;19959;-65
2022/11/07 05:13:19;;;;;;;;;;;;;;;9.15;65.48;100228.47;5105870;28;19971;-63
2022/11/07 05:15:44;;;;;;;;;;;;;;;9.27;65.16;100233.47;5072053;28;20011;-66
2022/11/07 05:18:10;;;;;;;;;;;;;;;9.29;65.01;100226.44;5073013;28;19990;-67
2022/11/07 05:20:36;;;;;;;;;;;;;;;9.43;64.84;100239.31;5070787;28;19936;-66
2022/11/07 05:23:14;;;;;;;;;;;;;;;9.53;64.31;100232.97;5104896;28;19921;-67
2022/11/07 05:25:42;;;;;;;;;;;;;;;9.60;64.23;100227.56;5073000;28;19933;-67
2022/11/07 05:28:10;;;;;;;;;;;;;;;9.69;64.27;100228.28;5069669;28;19974;-68
2022/11/07 05:30:37;;;;;;;;;;;;;;;9.73;63.92;100237.81;5070901;28;19920;-67
2022/11/07 05:33:02;;;;;;;;;;;;;;;9.78;64.08;100222.88;5070635;28;19965;-67
2022/11/07 05:35:27;;;;;;;;;;;;;;;9.87;63.71;100217.41;5071966;28;20019;-67
2022/11/07 05:37:53;;;;;;;;;;;;;;;9.86;63.62;100213.06;5070925;28;19925;-67
2022/11/07 05:40:18;;;;;;;;;;;;;;;9.79;64.68;100220.19;5071777;28;19934;-67
2022/11/07 05:42:43;;;;;;;;;;;;;;;9.90;63.72;100212.09;5070641;28;20069;-67
2022/11/07 05:45:09;;;;;;;;;;;;;;;9.94;63.99;100226.88;5070092;28;20081;-67
2022/11/07 05:47:34;;;;;;;;;;;;;;;9.99;63.58;100214.53;5070539;28;19925;-67
2022/11/07 05:49:59;;;;;;;;;;;;;;;9.84;64.18;100223.56;5060999;28;20081;-66
2022/11/07 05:52:25;;;;;;;;;;;;;;;9.98;63.76;100232.94;5067906;28;19924;-68
2022/11/07 05:54:50;;;;;;;;;;;;;;;10.00;64.18;100218.88;5071451;28;19925;-68
2022/11/07 05:57:15;;;;;;;;;;;;;;;10.05;63.90;100232.78;5075256;28;19935;-68
2022/11/07 05:59:41;;;;;;;;;;;;;;;10.08;64.16;100237.06;5075839;28;19935;-68
2022/11/07 06:02:06;;;;;;;;;;;;;;;10.08;64.34;100235.31;5075997;28;19916;-66
2022/11/07 06:04:31;;;;;;;;;;;;;;;10.11;63.84;100234.38;5074484;28;19925;-67
2022/11/07 06:06:57;;;;;;;;;;;;;;;10.11;64.52;100224.75;5069929;28;20265;-66
2022/11/07 06:09:22;;;;;;;;;;;;;;;10.18;63.94;100229.88;5073012;28;20011;-65
2022/11/07 06:11:47;;;;;;;;;;;;;;;10.28;63.78;100228.78;5076937;28;19964;-66
2022/11/07 06:14:12;;;;;;;;;;;;;;;10.27;64.24;100229.69;5074203;28;19932;-67
2022/11/07 06:16:38;;;;;;;;;;;;;;;10.21;64.13;100235.03;5075164;28;20248;-67
2022/11/07 06:19:03;;;;;;;;;;;;;;;10.10;64.54;100233.53;5075661;28;19932;-67
2022/11/07 06:21:28;;;;;;;;;;;;;;;10.15;65.01;100229.94;5074455;28;19920;-68
2022/11/07 06:23:54;;;;;;;;;;;;;;;10.18;64.90;100220.22;5095208;28;19924;-68
2022/11/07 06:26:19;;;;;;;;;;;;;;;10.19;64.80;100216.69;5097058;28;20396;-67
2022/11/07 06:28:44;;;;;;;;;;;;;;;10.26;64.85;100223.59;5096967;28;19929;-68
2022/11/07 06:31:10;;;;;;;;;;;;;;;10.34;64.41;100237.41;5093305;28;20440;-69
2022/11/07 06:33:35;;;;;;;;;;;;;;;10.38;64.41;100237.34;5076962;28;19925;-68
2022/11/07 06:36:07;;;;;;;;;;;;;;;10.39;64.12;100232.03;5075060;28;19932;-68
2022/11/07 06:38:33;;;;;;;;;;;;;;;10.39;64.27;100237.28;5074839;28;19932;-67
2022/11/07 06:41:25;;;;;;;;;;;;;;;10.36;64.19;100240.84;5075899;28;19924;-67
2022/11/07 06:43:50;;;;;;;;;;;;;;;10.38;64.64;100245.22;5074733;28;19920;-68
2022/11/07 06:46:18;;;;;;;;;;;;;;;10.45;63.99;100245.03;5074261;28;19927;-67
2022/11/07 06:48:43;;;;;;;;;;;;;;;10.42;63.95;100247.72;5072272;28;19932;-68
2022/11/07 06:51:09;;;;;;;;;;;;;;;10.45;63.74;100244.16;5077271;28;19924;-67
2022/11/07 06:53:35;;;;;;;;;;;;;;;10.39;64.25;100247.78;5084871;28;19916;-67
2022/11/07 06:56:03;;;;;;;;;;;;;;;10.48;63.92;100257.22;5075812;28;19924;-67
2022/11/07 06:58:28;;;;;;;;;;;;;;;10.52;63.83;100253.63;5075916;28;19924;-68
2022/11/07 07:00:57;;;;;;;;;;;;;;;10.51;63.67;100250.13;5076355;28;19919;-67
2022/11/07 07:03:22;;;;;;;;;;;;;;;10.47;63.87;100253.72;5074902;28;20010;-68
2022/11/07 07:05:48;;;;;;;;;;;;;;;10.50;63.82;100256.28;5076128;28;20015;-67
2022/11/07 07:08:13;;;;;;;;;;;;;;;10.47;64.37;100253.72;5075354;28;19920;-68
2022/11/07 07:10:42;;;;;;;;;;;;;;;10.52;63.97;100257.09;5074921;28;20368;-67
2022/11/07 07:13:08;;;;;;;;;;;;;;;10.49;63.69;100251.94;5074568;28;19956;-68
2022/11/07 07:15:33;;;;;;;;;;;;;;;10.53;63.83;100248.34;5072168;28;19968;-68
2022/11/07 07:17:59;;;;;;;;;;;;;;;10.58;63.60;100249.09;5074113;28;19928;-67
2022/11/07 07:20:24;;;;;;;;;;;;;;;10.51;63.35;100244.88;5075238;28;19932;-67
2022/11/07 07:22:50;;;;;;;;;;;;;;;10.45;64.06;100234.53;5092629;28;19931;-68
2022/11/07 07:25:15;;;;;;;;;;;;;;;10.58;63.32;100238.59;5095717;28;19920;-67
2022/11/07 07:27:40;;;;;;;;;;;;;;;10.58;63.35;100229.84;5094675;28;19928;-68
2022/11/07 07:30:06;;;;;;;;;;;;;;;10.64;63.37;100234.94;5094711;28;19920;-67
2022/11/07 07:32:33;;;;;;;;;;;;;;;10.73;63.10;100239.09;5094716;28;19931;-68
2022/11/07 07:34:59;;;;;;;;;;;;;;;10.81;63.20;100248.56;5095618;28;19916;-67
2022/11/07 07:37:24;;;;;;;;;;;;;;;10.79;63.83;100236.34;5095727;28;19920;-67
2022/11/07 07:39:51;;;;;;;;;;;;;;;10.87;62.78;100242.25;5095473;28;19920;-67
2022/11/07 07:42:16;;;;;;;;;;;;;;;10.77;62.89;100236.38;5095971;28;20023;-68
2022/11/07 07:44:41;;;;;;;;;;;;;;;10.89;62.88;100240.47;5095293;28;19955;-67
2022/11/07 07:47:07;;;;;;;;;;;;;;;10.90;62.66;100242.19;5095829;28;19916;-68
2022/11/07 07:49:32;;;;;;;;;;;;;;;10.98;62.58;100234.13;5095546;28;20310;-68
2022/11/07 07:51:57;;;;;;;;;;;;;;;11.07;62.58;100236.50;5094466;28;19921;-69
2022/11/07 07:54:23;;;;;;;;;;;;;;;11.23;62.29;100229.06;5074047;28;19924;-69
2022/11/07 07:56:48;;;;;;;;;;;;;;;11.33;61.86;100226.16;5072872;28;19925;-68
2022/11/07 07:59:13;;;;;;;;;;;;;;;11.34;61.77;100227.03;5072488;28;20237;-68
2022/11/07 08:01:39;;;;;;;;;;;;;;;11.25;61.22;100212.34;5067797;28;20018;-69
2022/11/07 08:04:04;;;;;;;;;;;;;;;11.42;61.57;100222.41;5074532;28;19956;-70
2022/11/07 08:06:29;;;;;;;;;;;;;;;11.57;61.13;100223.75;5075286;28;19977;-69
2022/11/07 08:08:55;;;;;;;;;;;;;;;11.73;60.75;100214.53;5074834;28;19967;-69
2022/11/07 08:11:20;;;;;;;;;;;;;;;11.92;60.71;100220.13;5073742;28;20384;-69
2022/11/07 08:13:45;;;;;;;;;;;;;;;11.87;60.66;100226.44;5073451;28;19920;-67
2022/11/07 08:16:11;;;;;;;;;;;;;;;11.94;60.32;100231.47;5074253;28;19928;-68
2022/11/07 08:18:38;;;;;;;;;;;;;;;11.90;59.92;100229.84;5073613;28;20007;-68
2022/11/07 08:21:04;;;;;;;;;;;;;;;11.78;59.98;100225.78;5074433;28;20000;-68
2022/11/07 08:23:30;;;;;;;;;;;;;;;11.80;60.07;100228.34;5073025;28;20322;-68
2022/11/07 08:25:56;;;;;;;;;;;;;;;11.69;60.42;100223.41;5073460;28;19954;-68
2022/11/07 08:28:24;;;;;;;;;;;;;;;11.58;60.19;100231.59;5092631;28;19920;-67
2022/11/07 08:30:59;;;;;;;;;;;;;;;11.55;60.65;100229.03;5071652;28;19928;-68
2022/11/07 08:33:24;;;;;;;;;;;;;;;11.47;60.65;100238.94;5073641;28;19966;-67
2022/11/07 08:35:50;;;;;;;;;;;;;;;11.58;60.67;100221.06;5072836;28;19924;-68
2022/11/07 08:38:15;;;;;;;;;;;;;;;11.64;60.19;100234.97;5072829;28;19924;-67
2022/11/07 08:40:40;;;;;;;;;;;;;;;11.73;60.40;100238.22;5073803;28;19928;-67
2022/11/07 08:43:06;;;;;;;;;;;;;;;11.79;60.23;100234.53;5111979;27;20287;-67
2022/11/07 08:45:31;;;;;;;;;;;;;;;11.89;59.91;100238.66;5073387;28;20002;-68
2022/11/07 08:47:57;;;;;;;;;;;;;;;11.96;59.86;100232.28;5073550;28;20380;-68
2022/11/07 08:50:23;;;;;;;;;;;;;;;11.92;58.98;100235.91;5070162;28;20011;-67
2022/11/07 08:52:48;;;;;;;;;;;;;;;12.15;59.72;100234.38;5072329;28;20410;-67
2022/11/07 08:55:13;;;;;;;;;;;;;;;12.29;59.27;100230.41;5070601;28;19925;-64
2022/11/07 08:57:39;;;;;;;;;;;;;;;12.65;58.87;100231.94;5102919;28;19924;-66
2022/11/07 09:00:05;;;;;;;;;;;;;;;13.05;58.26;100220.94;5071757;28;19920;-66
2022/11/07 09:02:30;;;;;;;;;;;;;;;13.15;56.99;100221.47;5072626;28;19921;-67
2022/11/07 09:04:56;;;;;;;;;;;;;;;13.26;57.16;100222.84;5073648;28;19931;-67
2022/11/07 09:07:21;;;;;;;;;;;;;;;13.35;56.67;100223.44;5076115;28;19933;-65
2022/11/07 09:09:46;;;;;;;;;;;;;;;13.27;56.67;100226.34;5081087;28;19920;-68
2022/11/07 09:12:12;;;;;;;;;;;;;;;12.76;56.15;100229.78;5085199;28;20011;-67
2022/11/07 09:14:37;;;;;;;;;;;;;;;12.50;56.90;100241.19;5072969;28;19924;-67
2022/11/07 09:17:02;;;;;;;;;;;;;;;12.47;57.85;100228.97;5073210;28;19924;-67
2022/11/07 09:19:28;;;;;;;;;;;;;;;12.41;58.47;100223.91;5072800;28;19971;-66
2022/11/07 09:21:53;;;;;;;;;;;;;;;12.38;58.26;100221.34;5073112;28;20358;-66
2022/11/07 09:24:18;;;;;;;;;;;;;;;12.52;58.08;100229.66;5072478;28;19933;-67
2022/11/07 09:26:43;;;;;;;;;;;;;;;12.40;57.55;100224.78;5073377;28;20439;-67
2022/11/07 09:29:09;;;;;;;;;;;;;;;12.40;58.97;100224.78;5072742;28;20015;-69
2022/11/07 09:31:34;;;;;;;;;;;;;;;12.51;57.77;100233.22;5075728;28;19960;-66
2022/11/07 09:33:59;;;;;;;;;;;;;;;12.54;58.99;100224.38;5085339;28;19931;-67
2022/11/07 09:36:25;;;;;;;;;;;;;;;12.61;59.01;100227.66;5096640;28;20057;-68
2022/11/07 09:38:50;;;;;;;;;;;;;;;12.54;57.74;100234.91;5083020;28;20007;-67
2022/11/07 09:41:24;;;;;;;;;;;;;;;12.35;57.81;100228.50;5076920;28;20018;-66
2022/11/07 09:44:00;;;;;;;;;;;;;;;12.32;58.53;100227.66;5076627;28;19927;-69
2022/11/07 09:46:37;;;;;;;;;;;;;;;12.25;58.06;100227.94;5076660;28;19924;-67
2022/11/07 09:49:08;;;;;;;;;;;;;;;12.50;58.28;100228.88;5087269;28;19924;-66
2022/11/07 09:51:43;;;;;;;;;;;;;;;12.75;58.49;100220.16;5076344;28;19954;-67
2022/11/07 09:54:14;;;;;;;;;;;;;;;12.87;57.75;100208.34;5076181;28;20015;-68
2022/11/07 09:56:41;;;;;;;;;;;;;;;13.14;58.18;100209.19;5076531;28;19971;-68
2022/11/07 09:59:12;;;;;;;;;;;;;;;13.27;56.89;100203.44;5092868;28;19916;-67
2022/11/07 10:01:37;;;;;;;;;;;;;;;13.41;56.82;100208.25;5079658;28;19920;-67
2022/11/07 10:04:03;;;;;;;;;;;;;;;13.46;56.08;100201.00;5089815;28;19932;-67
2022/11/07 10:06:30;;;;;;;;;;;;;;;13.33;56.87;100204.16;5076236;28;19925;-67
2022/11/07 10:09:11;;;;;;;;;;;;;;;13.42;56.95;100214.38;5075915;28;20322;-67
2022/11/07 10:11:47;;;;;;;;;;;;;;;13.37;56.45;100211.91;5067721;28;19920;-67
2022/11/07 10:14:31;;;;;;;;;;;;;;;13.33;56.38;100204.16;5076186;28;19994;-67
2022/11/07 10:17:15;;;;;;;;;;;;;;;13.28;56.63;100209.56;5082311;28;19924;-68
2022/11/07 10:19:40;;;;;;;;;;;;;;;13.20;57.48;100199.25;5084043;28;19928;-67
2022/11/07 10:22:11;;;;;;;;;;;;;;;13.17;57.01;100211.72;5075984;28;19920;-68
2022/11/07 10:24:43;;;;;;;;;;;;;;;12.95;57.68;100215.09;5075721;28;19966;-67
2022/11/07 10:27:09;;;;;;;;;;;;;;;12.96;57.37;100206.25;5075988;28;20287;-68
2022/11/07 10:29:46;;;;;;;;;;;;;;;13.00;57.94;100202.59;5075536;28;19944;-67
2022/11/07 10:32:14;;;;;;;;;;;;;;;12.90;57.50;100203.84;5086595;28;19924;-67
2022/11/07 10:34:45;;;;;;;;;;;;;;;13.05;58.87;100211.22;5076052;28;19928;-67
2022/11/07 10:37:11;;;;;;;;;;;;;;;13.14;57.26;100227.66;5074971;28;19929;-67
2022/11/07 10:39:36;;;;;;;;;;;;;;;12.86;57.50;100220.69;5075977;28;19932;-67
2022/11/07 10:42:19;;;;;;;;;;;;;;;12.76;58.92;100206.91;5074772;28;19928;-68
2022/11/07 10:44:45;;;;;;;;;;;;;;;13.06;58.44;100202.41;5074504;28;19920;-68
2022/11/07 10:47:28;;;;;;;;;;;;;;;13.09;58.59;100205.84;5075328;28;19925;-68
2022/11/07 10:49:55;;;;;;;;;;;;;;;13.23;57.55;100208.88;5075138;28;19921;-67
2022/11/07 10:52:20;;;;;;;;;;;;;;;13.48;57.31;100207.09;5074913;28;19924;-68
2022/11/07 10:54:46;;;;;;;;;;;;;;;13.82;57.13;100192.66;5075342;28;20347;-69
2022/11/07 10:57:14;;;;;;;;;;;;;;;13.87;57.46;100192.47;5073751;28;20376;-68
2022/11/07 10:59:43;;;;;;;;;;;;;;;13.80;55.84;100198.00;5075284;28;19920;-67
2022/11/07 11:02:20;;;;;;;;;;;;;;;13.91;56.52;100202.84;5083724;28;19931;-68
2022/11/07 11:04:53;;;;;;;;;;;;;;;13.81;58.08;100204.13;5074983;28;19964;-66
2022/11/07 11:07:19;;;;;;;;;;;;;;;14.04;56.22;100193.56;5068340;28;19920;-68
2022/11/07 11:09:51;;;;;;;;;;;;;;;14.24;55.33;100199.81;5075704;28;20324;-68
2022/11/07 11:12:19;;;;;;;;;;;;;;;14.25;54.82;100202.41;5073851;28;19955;-67
2022/11/07 11:14:44;;;;;;;;;;;;;;;14.54;55.37;100195.13;5075050;28;19920;-68
2022/11/07 11:17:27;;;;;;;;;;;;;;;14.67;55.03;100198.97;5073397;28;20307;-67
2022/11/07 11:19:52;;;;;;;;;;;;;;;14.82;54.81;100197.50;5074920;28;19925;-68
2022/11/07 11:22:19;;;;;;;;;;;;;;;14.74;54.54;100187.22;5074717;28;19924;-67
2022/11/07 11:24:45;;;;;;;;;;;;;;;14.60;53.61;100192.25;5074861;28;19943;-68
2022/11/07 11:27:16;;;;;;;;;;;;;;;14.54;55.70;100197.78;5074695;28;19924;-68
2022/11/07 11:29:44;;;;;;;;;;;;;;;14.47;54.83;100194.47;5074946;28;19920;-67
2022/11/07 11:32:48;;;;;;;;;;;;;;;14.67;54.85;100198.13;5074574;28;20054;-67
2022/11/07 11:35:21;;;;;;;;;;;;;;;14.79;55.04;100190.53;5051208;28;19947;-67
2022/11/07 11:37:50;;;;;;;;;;;;;;;14.86;54.20;100182.34;5052376;28;19990;-68
2022/11/07 11:40:17;;;;;;;;;;;;;;;14.99;54.42;100184.41;5064364;28;19920;-67
2022/11/07 11:42:58;;;;;;;;;;;;;;;14.89;53.68;100188.38;5074268;28;19931;-67
2022/11/07 11:45:28;;;;;;;;;;;;;;;14.76;54.61;100184.50;5074030;28;20016;-67
2022/11/07 11:47:58;;;;;;;;;;;;;;;14.83;54.51;100187.75;5074414;28;19960;-68
2022/11/07 11:50:40;;;;;;;;;;;;;;;15.07;54.40;100183.22;5074429;28;19925;-67
2022/11/07 11:53:07;;;;;;;;;;;;;;;15.10;54.11;100176.00;5073697;28;20315;-67
2022/11/07 11:55:40;;;;;;;;;;;;;;;15.11;53.80;100172.44;5074269;28;19921;-67
2022/11/07 11:58:31;;;;;;;;;;;;;;;15.25;54.30;100170.03;5073818;28;19965;-68
2022/11/07 12:01:06;;;;;;;;;;;;;;;15.32;54.36;100180.34;5073049;28;20552;-66
2022/11/07 12:03:44;;;;;;;;;;;;;;;15.29;55.14;100176.06;5074468;28;20101;-67
2022/11/07 12:06:19;;;;;;;;;;;;;;;15.24;53.72;100172.75;5073918;28;19974;-68
2022/11/07 12:08:44;;;;;;;;;;;;;;;15.15;53.66;100179.31;5071683;28;20390;-68
2022/11/07 12:11:15;;;;;;;;;;;;;;;15.11;54.28;100176.84;5074418;28;20385;-67
2022/11/07 12:13:46;;;;;;;;;;;;;;;15.25;54.41;100177.13;5078365;28;19926;-68
2022/11/07 12:16:11;;;;;;;;;;;;;;;15.06;53.62;100177.06;5074360;28;19924;-68
2022/11/07 12:18:55;;;;;;;;;;;;;;;15.22;53.81;100179.91;5073756;28;19939;-69
2022/11/07 12:21:33;;;;;;;;;;;;;;;15.35;53.85;100175.78;5073171;28;19928;-68
2022/11/07 12:23:58;;;;;;;;;;;;;;;15.30;53.86;100187.50;5073516;28;19920;-68
2022/11/07 12:26:28;;;;;;;;;;;;;;;15.25;54.57;100169.19;5073725;28;19920;-68
2022/11/07 12:29:12;;;;;;;;;;;;;;;15.40;53.91;100187.03;5072295;28;19920;-67
2022/11/07 12:31:37;;;;;;;;;;;;;;;15.32;54.05;100175.94;5069290;28;19927;-67
2022/11/07 12:34:21;;;;;;;;;;;;;;;15.08;53.99;100180.53;5075650;28;20018;-67
2022/11/07 12:37:05;;;;;;;;;;;;;;;15.02;54.79;100178.97;5073411;28;19927;-68
2022/11/07 12:39:42;;;;;;;;;;;;;;;14.98;54.61;100187.13;5073636;28;19928;-68
2022/11/07 12:42:26;;;;;;;;;;;;;;;15.05;55.20;100193.88;5073975;28;20019;-66
2022/11/07 12:45:01;;;;;;;;;;;;;;;15.05;55.50;100193.88;5074191;28;19927;-66
2022/11/07 12:47:36;;;;;;;;;;;;;;;15.00;54.51;100190.53;5073723;28;19935;-68
2022/11/07 12:50:01;;;;;;;;;;;;;;;14.99;54.69;100194.13;5073084;28;19939;-67
2022/11/07 12:52:59;;;;;;;;;;;;;;;15.01;54.74;100197.56;5073245;28;19925;-68
2022/11/07 12:55:30;;;;;;;;;;;;;;;14.89;55.75;100195.47;5048066;28;19973;-69